sensor_id;sensor_type;location;lat;lon;timestamp;temperature;humidity
22290;DHT22;11313;50.116;8.424;2022-11-02T00:00:29;23.80;57.00
22290;DHT22;11313;50.116;8.424;2022-11-02T00:02:54;23.70;56.90
22290;DHT22;11313;50.116;8.424;2022-11-02T00:05:20;23.70;56.90
22290;DHT22;11313;50.116;8.424;2022-11-02T00:07:50;23.80;57.00
22290;DHT22;11313;50.116;8.424;2022-11-02T00:10:16;23.70;56.90
22290;DHT22;11313;50.116;8.424;2022-11-02T00:12:42;23.70;56.90
22290;DHT22;11313;50.116;8.424;2022-11-02T00:15:08;23.70;57.00
22290;DHT22;11313;50.116;8.424;2022-11-02T00:17:34;23.70;56.90
22290;DHT22;11313;50.116;8.424;2022-11-02T00:20:01;23.70;57.00
22290;DHT22;11313;50.116;8.424;2022-11-02T00:22:28;23.70;57.00
22290;DHT22;11313;50.116;8.424;2022-11-02T00:24:54;23.70;57.00
22290;DHT22;11313;50.116;8.424;2022-11-02T00:27:22;23.70;57.00
22290;DHT22;11313;50.116;8.424;2022-11-02T00:29:48;23.70;56.90
22290;DHT22;11313;50.116;8.424;2022-11-02T00:32:13;23.70;57.00
22290;DHT22;11313;50.116;8.424;2022-11-02T00:34:39;23.70;57.00
22290;DHT22;11313;50.116;8.424;2022-11-02T00:37:04;23.70;57.00
22290;DHT22;11313;50.116;8.424;2022-11-02T00:39:30;23.70;57.00
22290;DHT22;11313;50.116;8.424;2022-11-02T00:41:55;23.70;57.00
22290;DHT22;11313;50.116;8.424;2022-11-02T00:44:21;23.70;57.00
22290;DHT22;11313;50.116;8.424;2022-11-02T00:46:46;23.70;57.00
22290;DHT22;11313;50.116;8.424;2022-11-02T00:49:12;23.70;57.00
22290;DHT22;11313;50.116;8.424;2022-11-02T00:51:37;23.70;57.00
22290;DHT22;11313;50.116;8.424;2022-11-02T00:54:03;23.70;57.00
22290;DHT22;11313;50.116;8.424;2022-11-02T00:56:28;23.60;57.00
22290;DHT22;11313;50.116;8.424;2022-11-02T00:58:54;23.60;57.00
22290;DHT22;11313;50.116;8.424;2022-11-02T01:01:19;23.70;57.10
22290;DHT22;11313;50.116;8.424;2022-11-02T01:03:45;23.60;57.00
22290;DHT22;11313;50.116;8.424;2022-11-02T01:06:12;23.60;57.00
22290;DHT22;11313;50.116;8.424;2022-11-02T01:08:38;23.60;57.00
22290;DHT22;11313;50.116;8.424;2022-11-02T01:11:17;23.60;57.00
22290;DHT22;11313;50.116;8.424;2022-11-02T01:13:43;23.60;57.00
22290;DHT22;11313;50.116;8.424;2022-11-02T01:16:09;23.60;57.00
22290;DHT22;11313;50.116;8.424;2022-11-02T01:18:35;23.60;57.00
22290;DHT22;11313;50.116;8.424;2022-11-02T01:21:00;23.60;57.00
22290;DHT22;11313;50.116;8.424;2022-11-02T01:23:26;23.60;57.00
22290;DHT22;11313;50.116;8.424;2022-11-02T01:25:54;23.60;57.10
22290;DHT22;11313;50.116;8.424;2022-11-02T01:28:20;23.60;57.10
22290;DHT22;11313;50.116;8.424;2022-11-02T01:30:46;23.60;57.10
22290;DHT22;11313;50.116;8.424;2022-11-02T01:33:13;23.60;57.10
22290;DHT22;11313;50.116;8.424;2022-11-02T01:35:38;23.60;57.00
22290;DHT22;11313;50.116;8.424;2022-11-02T01:38:04;23.60;57.10
22290;DHT22;11313;50.116;8.424;2022-11-02T01:40:36;23.60;57.10
22290;DHT22;11313;50.116;8.424;2022-11-02T01:43:20;23.60;57.10
22290;DHT22;11313;50.116;8.424;2022-11-02T01:45:46;23.60;57.10
22290;DHT22;11313;50.116;8.424;2022-11-02T01:48:12;23.60;57.10
22290;DHT22;11313;50.116;8.424;2022-11-02T01:50:38;23.60;57.10
22290;DHT22;11313;50.116;8.424;2022-11-02T01:53:04;23.60;57.10
22290;DHT22;11313;50.116;8.424;2022-11-02T01:55:31;23.60;57.10
22290;DHT22;11313;50.116;8.424;2022-11-02T01:58:06;23.60;57.10
22290;DHT22;11313;50.116;8.424;2022-11-02T02:00:32;23.60;57.10
22290;DHT22;11313;50.116;8.424;2022-11-02T02:05:37;23.50;57.00
22290;DHT22;11313;50.116;8.424;2022-11-02T02:08:04;23.60;57.10
22290;DHT22;11313;50.116;8.424;2022-11-02T02:10:32;23.60;57.10
22290;DHT22;11313;50.116;8.424;2022-11-02T02:12:58;23.60;57.10
22290;DHT22;11313;50.116;8.424;2022-11-02T02:15:26;23.60;57.10
22290;DHT22;11313;50.116;8.424;2022-11-02T02:18:03;23.60;57.00
22290;DHT22;11313;50.116;8.424;2022-11-02T02:31:51;23.60;57.00
22290;DHT22;11313;50.116;8.424;2022-11-02T02:34:27;23.60;57.00
22290;DHT22;11313;50.116;8.424;2022-11-02T02:37:05;23.60;56.90
22290;DHT22;11313;50.116;8.424;2022-11-02T02:39:42;23.60;56.90
22290;DHT22;11313;50.116;8.424;2022-11-02T02:42:22;23.60;56.90
22290;DHT22;11313;50.116;8.424;2022-11-02T02:45:07;23.60;56.90
22290;DHT22;11313;50.116;8.424;2022-11-02T02:47:41;23.70;56.90
22290;DHT22;11313;50.116;8.424;2022-11-02T02:50:21;23.70;56.90
22290;DHT22;11313;50.116;8.424;2022-11-02T02:52:50;23.70;56.90
22290;DHT22;11313;50.116;8.424;2022-11-02T02:55:20;23.70;56.90
22290;DHT22;11313;50.116;8.424;2022-11-02T02:57:47;23.70;56.80
22290;DHT22;11313;50.116;8.424;2022-11-02T03:00:16;23.80;57.50
22290;DHT22;11313;50.116;8.424;2022-11-02T03:02:43;23.80;56.80
22290;DHT22;11313;50.116;8.424;2022-11-02T03:05:32;23.80;57.40
22290;DHT22;11313;50.116;8.424;2022-11-02T03:08:09;23.80;56.80
22290;DHT22;11313;50.116;8.424;2022-11-02T03:14:04;23.80;56.70
22290;DHT22;11313;50.116;8.424;2022-11-02T03:21:43;23.80;56.70
22290;DHT22;11313;50.116;8.424;2022-11-02T03:24:18;23.80;56.70
22290;DHT22;11313;50.116;8.424;2022-11-02T03:26:51;23.80;56.60
22290;DHT22;11313;50.116;8.424;2022-11-02T03:29:31;23.80;56.60
22290;DHT22;11313;50.116;8.424;2022-11-02T03:32:10;23.80;56.60
22290;DHT22;11313;50.116;8.424;2022-11-02T03:34:44;23.80;56.60
22290;DHT22;11313;50.116;8.424;2022-11-02T03:39:50;23.80;56.50
22290;DHT22;11313;50.116;8.424;2022-11-02T03:42:22;23.80;56.60
22290;DHT22;11313;50.116;8.424;2022-11-02T03:44:51;23.80;56.50
22290;DHT22;11313;50.116;8.424;2022-11-02T03:47:19;23.80;56.60
22290;DHT22;11313;50.116;8.424;2022-11-02T03:49:46;23.80;56.60
22290;DHT22;11313;50.116;8.424;2022-11-02T03:52:19;23.90;56.50
22290;DHT22;11313;50.116;8.424;2022-11-02T03:55:07;23.80;56.50
22290;DHT22;11313;50.116;8.424;2022-11-02T03:57:40;23.90;56.50
22290;DHT22;11313;50.116;8.424;2022-11-02T04:00:09;23.80;56.50
22290;DHT22;11313;50.116;8.424;2022-11-02T04:02:36;23.90;56.50
22290;DHT22;11313;50.116;8.424;2022-11-02T04:05:03;23.80;56.50
22290;DHT22;11313;50.116;8.424;2022-11-02T04:07:32;23.80;56.50
22290;DHT22;11313;50.116;8.424;2022-11-02T04:10:18;23.90;56.50
22290;DHT22;11313;50.116;8.424;2022-11-02T04:12:44;23.80;56.50
22290;DHT22;11313;50.116;8.424;2022-11-02T04:15:28;23.90;56.50
22290;DHT22;11313;50.116;8.424;2022-11-02T04:17:53;23.80;56.50
22290;DHT22;11313;50.116;8.424;2022-11-02T04:20:37;23.90;56.60
22290;DHT22;11313;50.116;8.424;2022-11-02T04:23:03;23.80;56.50
22290;DHT22;11313;50.116;8.424;2022-11-02T04:25:52;23.80;56.50
22290;DHT22;11313;50.116;8.424;2022-11-02T04:28:18;23.90;56.50
22290;DHT22;11313;50.116;8.424;2022-11-02T04:30:43;23.80;56.50
22290;DHT22;11313;50.116;8.424;2022-11-02T04:33:08;23.90;56.60
22290;DHT22;11313;50.116;8.424;2022-11-02T04:35:52;23.80;56.50
22290;DHT22;11313;50.116;8.424;2022-11-02T04:38:18;23.90;56.60
22290;DHT22;11313;50.116;8.424;2022-11-02T04:41:02;23.90;56.50
22290;DHT22;11313;50.116;8.424;2022-11-02T04:43:46;23.80;56.50
22290;DHT22;11313;50.116;8.424;2022-11-02T04:46:11;23.80;56.50
22290;DHT22;11313;50.116;8.424;2022-11-02T04:48:37;23.80;56.50
22290;DHT22;11313;50.116;8.424;2022-11-02T04:51:02;23.80;56.50
22290;DHT22;11313;50.116;8.424;2022-11-02T04:53:28;23.80;56.50
22290;DHT22;11313;50.116;8.424;2022-11-02T04:55:53;23.80;56.50
22290;DHT22;11313;50.116;8.424;2022-11-02T04:58:19;23.80;56.50
22290;DHT22;11313;50.116;8.424;2022-11-02T05:00:44;23.80;56.50
22290;DHT22;11313;50.116;8.424;2022-11-02T05:03:10;23.80;56.50
22290;DHT22;11313;50.116;8.424;2022-11-02T05:05:35;23.80;56.50
22290;DHT22;11313;50.116;8.424;2022-11-02T05:08:01;23.80;56.50
22290;DHT22;11313;50.116;8.424;2022-11-02T05:10:26;23.90;56.60
22290;DHT22;11313;50.116;8.424;2022-11-02T05:12:56;23.80;56.50
22290;DHT22;11313;50.116;8.424;2022-11-02T05:15:22;23.80;56.50
22290;DHT22;11313;50.116;8.424;2022-11-02T05:17:48;23.80;56.50
22290;DHT22;11313;50.116;8.424;2022-11-02T05:20:14;23.80;56.60
22290;DHT22;11313;50.116;8.424;2022-11-02T05:22:42;23.80;56.60
22290;DHT22;11313;50.116;8.424;2022-11-02T05:25:09;23.80;56.60
22290;DHT22;11313;50.116;8.424;2022-11-02T05:27:35;23.80;56.60
22290;DHT22;11313;50.116;8.424;2022-11-02T05:30:01;23.80;56.60
22290;DHT22;11313;50.116;8.424;2022-11-02T05:32:26;23.80;56.60
22290;DHT22;11313;50.116;8.424;2022-11-02T05:34:52;23.80;56.60
22290;DHT22;11313;50.116;8.424;2022-11-02T05:37:18;23.70;56.60
22290;DHT22;11313;50.116;8.424;2022-11-02T05:39:43;23.80;56.60
22290;DHT22;11313;50.116;8.424;2022-11-02T05:42:09;23.80;56.70
22290;DHT22;11313;50.116;8.424;2022-11-02T05:44:35;23.70;56.60
22290;DHT22;11313;50.116;8.424;2022-11-02T05:47:00;23.70;56.60
22290;DHT22;11313;50.116;8.424;2022-11-02T05:49:26;23.70;56.70
22290;DHT22;11313;50.116;8.424;2022-11-02T05:51:51;23.70;56.60
22290;DHT22;11313;50.116;8.424;2022-11-02T05:54:17;23.80;56.70
22290;DHT22;11313;50.116;8.424;2022-11-02T05:56:43;23.80;56.70
22290;DHT22;11313;50.116;8.424;2022-11-02T05:59:08;23.70;56.70
22290;DHT22;11313;50.116;8.424;2022-11-02T06:01:34;23.70;56.60
22290;DHT22;11313;50.116;8.424;2022-11-02T06:04:00;23.70;56.70
22290;DHT22;11313;50.116;8.424;2022-11-02T06:06:25;23.70;56.70
22290;DHT22;11313;50.116;8.424;2022-11-02T06:08:51;23.70;56.70
22290;DHT22;11313;50.116;8.424;2022-11-02T06:11:17;23.70;56.60
22290;DHT22;11313;50.116;8.424;2022-11-02T06:13:42;23.70;56.70
22290;DHT22;11313;50.116;8.424;2022-11-02T06:16:09;23.80;56.70
22290;DHT22;11313;50.116;8.424;2022-11-02T06:18:36;23.70;56.70
22290;DHT22;11313;50.116;8.424;2022-11-02T06:21:02;23.70;56.70
22290;DHT22;11313;50.116;8.424;2022-11-02T06:23:28;23.70;56.70
22290;DHT22;11313;50.116;8.424;2022-11-02T06:25:55;23.70;56.80
22290;DHT22;11313;50.116;8.424;2022-11-02T06:28:21;23.70;56.70
22290;DHT22;11313;50.116;8.424;2022-11-02T06:30:47;23.70;56.70
22290;DHT22;11313;50.116;8.424;2022-11-02T06:33:17;23.70;56.70
22290;DHT22;11313;50.116;8.424;2022-11-02T06:35:46;23.70;56.70
22290;DHT22;11313;50.116;8.424;2022-11-02T06:38:12;23.70;56.70
22290;DHT22;11313;50.116;8.424;2022-11-02T06:40:38;23.70;56.70
22290;DHT22;11313;50.116;8.424;2022-11-02T06:43:03;23.70;56.70
22290;DHT22;11313;50.116;8.424;2022-11-02T06:45:29;23.70;56.80
22290;DHT22;11313;50.116;8.424;2022-11-02T06:47:54;23.70;56.80
22290;DHT22;11313;50.116;8.424;2022-11-02T06:50:20;23.60;56.70
22290;DHT22;11313;50.116;8.424;2022-11-02T06:52:47;23.70;56.80
22290;DHT22;11313;50.116;8.424;2022-11-02T06:55:13;23.70;56.80
22290;DHT22;11313;50.116;8.424;2022-11-02T06:57:40;23.70;56.90
22290;DHT22;11313;50.116;8.424;2022-11-02T07:00:08;23.60;56.90
22290;DHT22;11313;50.116;8.424;2022-11-02T07:02:35;23.60;56.80
22290;DHT22;11313;50.116;8.424;2022-11-02T07:05:01;23.70;56.90
22290;DHT22;11313;50.116;8.424;2022-11-02T07:07:26;23.70;56.90
22290;DHT22;11313;50.116;8.424;2022-11-02T07:09:52;23.60;56.80
22290;DHT22;11313;50.116;8.424;2022-11-02T07:12:18;23.60;56.80
22290;DHT22;11313;50.116;8.424;2022-11-02T07:14:44;23.70;56.80
22290;DHT22;11313;50.116;8.424;2022-11-02T07:17:09;23.60;56.80
22290;DHT22;11313;50.116;8.424;2022-11-02T07:19:35;23.70;56.80
22290;DHT22;11313;50.116;8.424;2022-11-02T07:22:00;23.70;56.80
22290;DHT22;11313;50.116;8.424;2022-11-02T07:24:26;23.70;56.80
22290;DHT22;11313;50.116;8.424;2022-11-02T07:26:51;23.70;56.80
22290;DHT22;11313;50.116;8.424;2022-11-02T07:29:17;23.70;56.70
22290;DHT22;11313;50.116;8.424;2022-11-02T07:31:43;23.70;57.30
22290;DHT22;11313;50.116;8.424;2022-11-02T07:34:10;23.80;56.80
22290;DHT22;11313;50.116;8.424;2022-11-02T07:36:35;23.70;56.70
22290;DHT22;11313;50.116;8.424;2022-11-02T07:39:01;23.80;56.70
22290;DHT22;11313;50.116;8.424;2022-11-02T07:41:27;23.70;56.60
22290;DHT22;11313;50.116;8.424;2022-11-02T07:43:52;23.80;56.70
22290;DHT22;11313;50.116;8.424;2022-11-02T07:46:18;23.80;56.60
22290;DHT22;11313;50.116;8.424;2022-11-02T07:48:43;23.80;56.60
22290;DHT22;11313;50.116;8.424;2022-11-02T07:51:09;23.80;56.60
22290;DHT22;11313;50.116;8.424;2022-11-02T07:53:36;23.80;56.60
22290;DHT22;11313;50.116;8.424;2022-11-02T07:56:02;23.80;56.60
22290;DHT22;11313;50.116;8.424;2022-11-02T07:58:28;23.80;56.60
22290;DHT22;11313;50.116;8.424;2022-11-02T08:00:56;23.80;56.60
22290;DHT22;11313;50.116;8.424;2022-11-02T08:03:22;23.80;56.50
22290;DHT22;11313;50.116;8.424;2022-11-02T08:05:47;23.80;56.50
22290;DHT22;11313;50.116;8.424;2022-11-02T08:08:16;23.80;56.50
22290;DHT22;11313;50.116;8.424;2022-11-02T08:10:43;23.90;56.50
22290;DHT22;11313;50.116;8.424;2022-11-02T08:13:11;23.80;56.50
22290;DHT22;11313;50.116;8.424;2022-11-02T08:15:37;23.90;56.50
22290;DHT22;11313;50.116;8.424;2022-11-02T08:18:08;23.90;56.50
22290;DHT22;11313;50.116;8.424;2022-11-02T08:20:36;23.90;56.40
22290;DHT22;11313;50.116;8.424;2022-11-02T08:23:02;23.90;56.50
22290;DHT22;11313;50.116;8.424;2022-11-02T08:25:28;23.90;56.40
22290;DHT22;11313;50.116;8.424;2022-11-02T08:27:57;23.90;56.50
22290;DHT22;11313;50.116;8.424;2022-11-02T08:30:24;23.90;56.50
22290;DHT22;11313;50.116;8.424;2022-11-02T08:32:49;23.90;56.40
22290;DHT22;11313;50.116;8.424;2022-11-02T08:35:15;23.90;56.40
22290;DHT22;11313;50.116;8.424;2022-11-02T08:37:40;23.90;56.40
22290;DHT22;11313;50.116;8.424;2022-11-02T08:40:06;23.90;56.40
22290;DHT22;11313;50.116;8.424;2022-11-02T08:42:32;23.90;56.30
22290;DHT22;11313;50.116;8.424;2022-11-02T08:44:58;23.90;56.40
22290;DHT22;11313;50.116;8.424;2022-11-02T08:47:23;23.90;56.40
22290;DHT22;11313;50.116;8.424;2022-11-02T08:49:49;23.90;56.40
22290;DHT22;11313;50.116;8.424;2022-11-02T08:52:16;23.90;56.40
22290;DHT22;11313;50.116;8.424;2022-11-02T08:54:42;23.90;56.30
22290;DHT22;11313;50.116;8.424;2022-11-02T08:57:08;23.90;56.30
22290;DHT22;11313;50.116;8.424;2022-11-02T08:59:33;23.90;56.40
22290;DHT22;11313;50.116;8.424;2022-11-02T09:01:59;23.90;56.30
22290;DHT22;11313;50.116;8.424;2022-11-02T09:04:24;23.90;56.30
22290;DHT22;11313;50.116;8.424;2022-11-02T09:06:50;23.90;56.30
22290;DHT22;11313;50.116;8.424;2022-11-02T09:09:16;23.90;56.30
22290;DHT22;11313;50.116;8.424;2022-11-02T09:11:41;23.90;56.30
22290;DHT22;11313;50.116;8.424;2022-11-02T09:14:07;23.90;56.30
22290;DHT22;11313;50.116;8.424;2022-11-02T09:16:33;23.90;56.30
22290;DHT22;11313;50.116;8.424;2022-11-02T09:18:59;23.90;56.30
22290;DHT22;11313;50.116;8.424;2022-11-02T09:21:24;24.00;56.50
22290;DHT22;11313;50.116;8.424;2022-11-02T09:23:50;24.00;56.40
22290;DHT22;11313;50.116;8.424;2022-11-02T09:26:15;23.90;56.30
22290;DHT22;11313;50.116;8.424;2022-11-02T09:28:41;23.90;56.30
22290;DHT22;11313;50.116;8.424;2022-11-02T09:31:07;24.00;56.40
22290;DHT22;11313;50.116;8.424;2022-11-02T09:33:32;23.90;57.00
22290;DHT22;11313;50.116;8.424;2022-11-02T09:36:04;23.90;56.40
22290;DHT22;11313;50.116;8.424;2022-11-02T09:38:30;23.90;56.40
22290;DHT22;11313;50.116;8.424;2022-11-02T09:41:00;24.00;56.50
22290;DHT22;11313;50.116;8.424;2022-11-02T09:49:14;23.90;56.40
22290;DHT22;11313;50.116;8.424;2022-11-02T09:51:54;23.90;56.40
22290;DHT22;11313;50.116;8.424;2022-11-02T09:56:49;23.90;56.40
22290;DHT22;11313;50.116;8.424;2022-11-02T09:59:20;23.90;56.40
22290;DHT22;11313;50.116;8.424;2022-11-02T10:15:46;23.90;56.50
22290;DHT22;11313;50.116;8.424;2022-11-02T10:18:18;23.90;56.60
22290;DHT22;11313;50.116;8.424;2022-11-02T10:20:47;23.90;56.50
22290;DHT22;11313;50.116;8.424;2022-11-02T10:23:23;23.90;56.60
22290;DHT22;11313;50.116;8.424;2022-11-02T10:25:50;23.90;56.60
22290;DHT22;11313;50.116;8.424;2022-11-02T10:28:19;23.90;56.60
22290;DHT22;11313;50.116;8.424;2022-11-02T10:30:48;23.90;56.60
22290;DHT22;11313;50.116;8.424;2022-11-02T10:33:17;23.90;56.60
22290;DHT22;11313;50.116;8.424;2022-11-02T10:35:52;23.90;56.60
22290;DHT22;11313;50.116;8.424;2022-11-02T10:38:39;23.90;56.70
22290;DHT22;11313;50.116;8.424;2022-11-02T10:41:12;23.90;56.70
22290;DHT22;11313;50.116;8.424;2022-11-02T10:49:41;23.90;56.80
22290;DHT22;11313;50.116;8.424;2022-11-02T10:52:14;23.90;56.80
22290;DHT22;11313;50.116;8.424;2022-11-02T10:54:41;23.90;56.70
22290;DHT22;11313;50.116;8.424;2022-11-02T10:57:11;23.90;56.70
22290;DHT22;11313;50.116;8.424;2022-11-02T10:59:37;23.90;56.80
22290;DHT22;11313;50.116;8.424;2022-11-02T11:02:12;23.90;56.80
22290;DHT22;11313;50.116;8.424;2022-11-02T11:04:38;23.90;56.80
22290;DHT22;11313;50.116;8.424;2022-11-02T11:09:49;23.90;56.80
22290;DHT22;11313;50.116;8.424;2022-11-02T11:12:22;23.90;56.80
22290;DHT22;11313;50.116;8.424;2022-11-02T11:14:52;23.90;56.80
22290;DHT22;11313;50.116;8.424;2022-11-02T11:17:28;23.90;56.80
22290;DHT22;11313;50.116;8.424;2022-11-02T11:19:57;23.90;56.70
22290;DHT22;11313;50.116;8.424;2022-11-02T11:22:39;23.90;56.80
22290;DHT22;11313;50.116;8.424;2022-11-02T11:27:44;23.90;56.80
22290;DHT22;11313;50.116;8.424;2022-11-02T11:32:48;23.90;56.80
22290;DHT22;11313;50.116;8.424;2022-11-02T11:35:16;23.90;56.80
22290;DHT22;11313;50.116;8.424;2022-11-02T11:37:55;23.90;56.70
22290;DHT22;11313;50.116;8.424;2022-11-02T11:40:22;23.90;56.70
22290;DHT22;11313;50.116;8.424;2022-11-02T11:42:49;23.90;56.70
22290;DHT22;11313;50.116;8.424;2022-11-02T11:50:22;23.90;56.80
22290;DHT22;11313;50.116;8.424;2022-11-02T11:53:08;23.90;56.80
22290;DHT22;11313;50.116;8.424;2022-11-02T11:55:35;23.90;56.80
22290;DHT22;11313;50.116;8.424;2022-11-02T12:00:41;23.90;56.80
22290;DHT22;11313;50.116;8.424;2022-11-02T12:03:09;23.90;56.80
22290;DHT22;11313;50.116;8.424;2022-11-02T12:08:43;24.00;56.80
22290;DHT22;11313;50.116;8.424;2022-11-02T12:11:29;23.90;56.80
22290;DHT22;11313;50.116;8.424;2022-11-02T12:22:02;24.00;56.90
22290;DHT22;11313;50.116;8.424;2022-11-02T12:27:39;23.90;56.90
22290;DHT22;11313;50.116;8.424;2022-11-02T12:30:12;23.90;56.90
22290;DHT22;11313;50.116;8.424;2022-11-02T12:35:34;23.90;56.90
22290;DHT22;11313;50.116;8.424;2022-11-02T12:41:09;23.90;56.90
22290;DHT22;11313;50.116;8.424;2022-11-02T12:43:42;23.90;56.90
22290;DHT22;11313;50.116;8.424;2022-11-02T12:46:22;23.90;56.90
22290;DHT22;11313;50.116;8.424;2022-11-02T12:54:56;23.90;56.90
22290;DHT22;11313;50.116;8.424;2022-11-02T12:57:26;23.90;56.90
22290;DHT22;11313;50.116;8.424;2022-11-02T12:59:59;24.00;57.00
22290;DHT22;11313;50.116;8.424;2022-11-02T13:05:03;23.90;56.90
22290;DHT22;11313;50.116;8.424;2022-11-02T13:07:36;23.90;56.90
22290;DHT22;11313;50.116;8.424;2022-11-02T13:10:16;23.90;56.90
22290;DHT22;11313;50.116;8.424;2022-11-02T13:12:44;23.90;56.90
22290;DHT22;11313;50.116;8.424;2022-11-02T13:15:15;23.90;56.90
22290;DHT22;11313;50.116;8.424;2022-11-02T13:17:48;24.00;57.00
22290;DHT22;11313;50.116;8.424;2022-11-02T13:20:23;24.00;57.00
22290;DHT22;11313;50.116;8.424;2022-11-02T13:22:55;23.90;57.00
22290;DHT22;11313;50.116;8.424;2022-11-02T13:25:33;23.90;56.90
22290;DHT22;11313;50.116;8.424;2022-11-02T13:28:02;24.00;57.00
22290;DHT22;11313;50.116;8.424;2022-11-02T13:30:30;23.90;56.90
22290;DHT22;11313;50.116;8.424;2022-11-02T13:33:11;23.90;56.90
22290;DHT22;11313;50.116;8.424;2022-11-02T13:35:38;23.90;56.90
22290;DHT22;11313;50.116;8.424;2022-11-02T13:49:43;23.90;56.90
22290;DHT22;11313;50.116;8.424;2022-11-02T13:52:15;24.00;57.00
22290;DHT22;11313;50.116;8.424;2022-11-02T13:57:47;24.00;57.10
22290;DHT22;11313;50.116;8.424;2022-11-02T14:05:32;23.90;57.00
22290;DHT22;11313;50.116;8.424;2022-11-02T14:08:03;24.00;57.10
22290;DHT22;11313;50.116;8.424;2022-11-02T14:10:37;24.00;57.10
22290;DHT22;11313;50.116;8.424;2022-11-02T14:13:03;23.90;57.00
22290;DHT22;11313;50.116;8.424;2022-11-02T14:18:10;24.00;57.10
22290;DHT22;11313;50.116;8.424;2022-11-02T14:20:43;23.90;57.00
22290;DHT22;11313;50.116;8.424;2022-11-02T14:25:52;23.90;57.00
22290;DHT22;11313;50.116;8.424;2022-11-02T14:34:02;23.90;57.00
22290;DHT22;11313;50.116;8.424;2022-11-02T14:36:54;23.90;57.00
22290;DHT22;11313;50.116;8.424;2022-11-02T14:45:28;23.90;57.00
22290;DHT22;11313;50.116;8.424;2022-11-02T14:47:59;23.90;57.10
22290;DHT22;11313;50.116;8.424;2022-11-02T14:50:27;23.90;57.10
22290;DHT22;11313;50.116;8.424;2022-11-02T14:53:05;23.90;57.10
22290;DHT22;11313;50.116;8.424;2022-11-02T14:55:33;23.90;57.10
22290;DHT22;11313;50.116;8.424;2022-11-02T14:58:17;23.90;57.10
22290;DHT22;11313;50.116;8.424;2022-11-02T15:06:05;23.80;57.10
22290;DHT22;11313;50.116;8.424;2022-11-02T15:17:01;23.90;57.20
22290;DHT22;11313;50.116;8.424;2022-11-02T15:19:41;23.90;57.20
22290;DHT22;11313;50.116;8.424;2022-11-02T15:22:44;23.90;57.20
22290;DHT22;11313;50.116;8.424;2022-11-02T15:25:29;23.90;57.20
22290;DHT22;11313;50.116;8.424;2022-11-02T15:28:11;23.90;57.20
22290;DHT22;11313;50.116;8.424;2022-11-02T15:30:45;23.90;57.20
22290;DHT22;11313;50.116;8.424;2022-11-02T15:33:33;23.90;57.20
22290;DHT22;11313;50.116;8.424;2022-11-02T15:36:00;23.90;57.20
22290;DHT22;11313;50.116;8.424;2022-11-02T15:38:27;23.90;57.20
22290;DHT22;11313;50.116;8.424;2022-11-02T15:41:03;23.90;57.20
22290;DHT22;11313;50.116;8.424;2022-11-02T15:48:55;23.90;57.20
22290;DHT22;11313;50.116;8.424;2022-11-02T15:51:30;23.90;57.10
22290;DHT22;11313;50.116;8.424;2022-11-02T15:54:12;23.90;57.10
22290;DHT22;11313;50.116;8.424;2022-11-02T15:56:45;23.90;57.10
22290;DHT22;11313;50.116;8.424;2022-11-02T16:02:10;23.90;57.10
22290;DHT22;11313;50.116;8.424;2022-11-02T16:04:44;23.90;57.10
22290;DHT22;11313;50.116;8.424;2022-11-02T16:07:12;23.90;57.10
22290;DHT22;11313;50.116;8.424;2022-11-02T16:09:39;23.90;57.00
22290;DHT22;11313;50.116;8.424;2022-11-02T16:12:18;23.90;57.00
22290;DHT22;11313;50.116;8.424;2022-11-02T16:15:01;23.90;57.00
22290;DHT22;11313;50.116;8.424;2022-11-02T16:17:30;23.80;57.00
22290;DHT22;11313;50.116;8.424;2022-11-02T16:20:21;23.90;57.00
22290;DHT22;11313;50.116;8.424;2022-11-02T16:22:58;23.90;57.00
22290;DHT22;11313;50.116;8.424;2022-11-02T16:25:31;23.80;56.90
22290;DHT22;11313;50.116;8.424;2022-11-02T16:30:36;23.90;56.90
22290;DHT22;11313;50.116;8.424;2022-11-02T16:33:02;23.80;56.90
22290;DHT22;11313;50.116;8.424;2022-11-02T16:35:29;23.80;56.90
22290;DHT22;11313;50.116;8.424;2022-11-02T16:37:55;23.80;56.90
22290;DHT22;11313;50.116;8.424;2022-11-02T16:40:20;23.80;56.90
22290;DHT22;11313;50.116;8.424;2022-11-02T16:42:48;23.80;56.90
22290;DHT22;11313;50.116;8.424;2022-11-02T16:45:33;23.80;57.00
22290;DHT22;11313;50.116;8.424;2022-11-02T16:48:00;23.80;57.00
22290;DHT22;11313;50.116;8.424;2022-11-02T16:50:26;23.80;57.00
22290;DHT22;11313;50.116;8.424;2022-11-02T16:52:59;23.80;57.00
22290;DHT22;11313;50.116;8.424;2022-11-02T16:55:45;23.80;57.00
22290;DHT22;11313;50.116;8.424;2022-11-02T16:58:15;23.80;57.00
22290;DHT22;11313;50.116;8.424;2022-11-02T17:01:02;23.80;57.10
22290;DHT22;11313;50.116;8.424;2022-11-02T17:03:32;23.80;57.10
22290;DHT22;11313;50.116;8.424;2022-11-02T17:05:59;23.80;57.10
22290;DHT22;11313;50.116;8.424;2022-11-02T17:10:58;23.80;57.10
22290;DHT22;11313;50.116;8.424;2022-11-02T17:13:25;23.80;57.20
22290;DHT22;11313;50.116;8.424;2022-11-02T17:15:54;23.80;57.20
22290;DHT22;11313;50.116;8.424;2022-11-02T17:20:47;23.80;57.20
22290;DHT22;11313;50.116;8.424;2022-11-02T17:23:34;23.70;57.10
22290;DHT22;11313;50.116;8.424;2022-11-02T17:28:49;23.80;57.20
22290;DHT22;11313;50.116;8.424;2022-11-02T17:31:24;23.70;57.20
22290;DHT22;11313;50.116;8.424;2022-11-02T17:33:51;23.70;57.20
22290;DHT22;11313;50.116;8.424;2022-11-02T17:36:17;23.70;57.20
22290;DHT22;11313;50.116;8.424;2022-11-02T17:38:43;23.70;57.20
22290;DHT22;11313;50.116;8.424;2022-11-02T17:41:12;23.70;57.20
22290;DHT22;11313;50.116;8.424;2022-11-02T17:43:57;23.70;57.20
22290;DHT22;11313;50.116;8.424;2022-11-02T17:46:23;23.80;57.40
22290;DHT22;11313;50.116;8.424;2022-11-02T17:48:48;23.70;57.30
22290;DHT22;11313;50.116;8.424;2022-11-02T17:51:14;23.70;57.30
22290;DHT22;11313;50.116;8.424;2022-11-02T17:53:41;23.70;57.30
22290;DHT22;11313;50.116;8.424;2022-11-02T17:56:08;23.70;57.30
22290;DHT22;11313;50.116;8.424;2022-11-02T17:58:34;23.70;57.30
22290;DHT22;11313;50.116;8.424;2022-11-02T18:00:59;23.70;57.30
22290;DHT22;11313;50.116;8.424;2022-11-02T18:03:27;23.70;57.40
22290;DHT22;11313;50.116;8.424;2022-11-02T18:05:52;23.70;57.40
22290;DHT22;11313;50.116;8.424;2022-11-02T18:08:19;23.70;58.00
22290;DHT22;11313;50.116;8.424;2022-11-02T18:10:45;23.70;57.40
22290;DHT22;11313;50.116;8.424;2022-11-02T18:13:14;23.70;57.40
22290;DHT22;11313;50.116;8.424;2022-11-02T18:15:40;23.70;57.40
22290;DHT22;11313;50.116;8.424;2022-11-02T18:18:06;23.70;57.40
22290;DHT22;11313;50.116;8.424;2022-11-02T18:20:32;23.70;57.40
22290;DHT22;11313;50.116;8.424;2022-11-02T18:22:58;23.70;57.40
22290;DHT22;11313;50.116;8.424;2022-11-02T18:25:26;23.70;57.50
22290;DHT22;11313;50.116;8.424;2022-11-02T18:27:54;23.70;57.50
22290;DHT22;11313;50.116;8.424;2022-11-02T18:30:20;23.60;57.40